Time;durP1;ratioP1;P1;durP2;ratioP2;P2;SDS_P1;SDS_P2;PMS_P1;PMS_P2;Temp;Humidity;BMP_temperature;BMP_pressure;BME280_temperature;BME280_humidity;BME280_pressure;Samples;Min_cycle;Max_cycle;Signal;HPM_P1;HPM_P2
2023/12/04 00:00:42;;;;;;;27.03;18.03;;;0.40;99.90;;;;;;5059646;28;20647;-75
2023/12/04 00:03:08;;;;;;;29.60;18.00;;;0.40;99.90;;;;;;5056036;28;20182;-75
2023/12/04 00:05:34;;;;;;;26.63;16.87;;;0.40;99.90;;;;;;5053930;28;20564;-76
2023/12/04 00:07:59;;;;;;;33.27;18.47;;;0.30;99.90;;;;;;5056134;28;20195;-76
2023/12/04 00:10:25;;;;;;;27.57;18.77;;;0.40;99.90;;;;;;5057317;28;20163;-75
2023/12/04 00:12:51;;;;;;;27.57;17.90;;;0.40;99.90;;;;;;5074274;28;20185;-75
2023/12/04 00:15:19;;;;;;;30.27;18.37;;;0.40;99.90;;;;;;5054082;28;20171;-76
2023/12/04 00:17:45;;;;;;;31.92;18.33;;;0.40;99.90;;;;;;5055454;28;20421;-76
2023/12/04 00:20:10;;;;;;;29.00;18.40;;;0.40;99.90;;;;;;5054689;28;20182;-76
2023/12/04 00:22:37;;;;;;;29.03;19.07;;;0.40;99.90;;;;;;5056041;28;20401;-77
2023/12/04 00:25:04;;;;;;;26.60;17.33;;;0.40;99.30;;;;;;5053649;28;20202;-76
2023/12/04 00:27:30;;;;;;;28.60;18.05;;;0.40;97.60;;;;;;5074788;28;20710;-76
2023/12/04 00:29:56;;;;;;;23.30;14.40;;;0.40;97.00;;;;;;5055775;28;20277;-77
2023/12/04 00:32:22;;;;;;;27.93;16.97;;;0.40;96.60;;;;;;5055976;28;20167;-75
2023/12/04 00:34:48;;;;;;;26.30;17.38;;;0.40;94.60;;;;;;5054465;28;20412;-76
2023/12/04 00:37:13;;;;;;;26.80;16.30;;;0.40;93.50;;;;;;5055299;28;20191;-77
2023/12/04 00:39:39;;;;;;;33.57;18.30;;;0.40;91.70;;;;;;5057115;28;20175;-75
2023/12/04 00:42:05;;;;;;;28.10;16.33;;;0.30;85.40;;;;;;5074295;28;20170;-76
2023/12/04 00:44:31;;;;;;;28.75;16.83;;;0.20;73.80;;;;;;5074947;28;20291;-79
2023/12/04 00:46:57;;;;;;;32.97;17.67;;;0.20;73.80;;;;;;5075457;28;20662;-75
2023/12/04 00:49:23;;;;;;;28.67;17.53;;;0.20;73.80;;;;;;5059238;28;20171;-76
2023/12/04 00:51:49;;;;;;;28.77;16.67;;;0.20;73.80;;;;;;5055456;28;20532;-76
2023/12/04 00:54:15;;;;;;;29.67;17.10;;;0.20;73.70;;;;;;5055220;28;20178;-75
2023/12/04 00:56:41;;;;;;;26.90;16.97;;;0.10;64.70;;;;;;5073871;28;20190;-76
2023/12/04 00:59:10;;;;;;;23.77;16.80;;;0.10;60.40;;;;;;5075565;28;20162;-75
2023/12/04 01:01:37;;;;;;;25.23;16.23;;;0.10;56.70;;;;;;5058204;28;20179;-75
2023/12/04 01:04:03;;;;;;;31.30;16.15;;;0.00;48.10;;;;;;5054016;28;20241;-76
2023/12/04 01:06:29;;;;;;;29.85;16.20;;;0.10;47.50;;;;;;5053343;28;20359;-75
2023/12/04 01:08:55;;;;;;;22.93;17.30;;;0.00;39.00;;;;;;5057478;28;20202;-75
2023/12/04 01:11:21;;;;;;;25.70;17.60;;;-0.10;28.90;;;;;;5074988;28;20903;-75
2023/12/04 01:13:48;;;;;;;27.20;16.27;;;-0.10;24.70;;;;;;5058999;28;20243;-77
2023/12/04 01:16:14;;;;;;;32.22;18.10;;;-0.10;25.00;;;;;;5052981;28;20198;-75
2023/12/04 01:18:41;;;;;;;29.88;15.88;;;-0.10;24.70;;;;;;5054710;28;20201;-75
2023/12/04 01:21:08;;;;;;;28.88;18.00;;;-0.20;24.60;;;;;;5054983;28;20175;-75
2023/12/04 01:23:37;;;;;;;25.13;15.10;;;-0.20;24.70;;;;;;5054736;28;20167;-76
2023/12/04 01:26:04;;;;;;;28.10;15.85;;;-0.10;24.70;;;;;;5053112;28;20190;-76
2023/12/04 01:28:30;;;;;;;26.08;17.40;;;-0.10;24.70;;;;;;5054771;28;20198;-75
2023/12/04 01:30:55;;;;;;;35.40;17.27;;;-0.10;24.70;;;;;;5054158;28;20167;-75
2023/12/04 01:33:21;;;;;;;32.90;17.80;;;-0.10;24.70;;;;;;5054622;28;20409;-75
2023/12/04 01:35:47;;;;;;;28.00;16.90;;;-0.10;17.10;;;;;;5052613;28;20185;-75
2023/12/04 01:38:12;;;;;;;26.20;16.63;;;-0.20;10.30;;;;;;5054197;28;20270;-76
2023/12/04 01:40:38;;;;;;;31.50;15.57;;;-0.10;10.90;;;;;;5073926;28;20193;-76
2023/12/04 01:43:05;;;;;;;27.47;17.67;;;-0.10;14.00;;;;;;5073600;28;20185;-75
2023/12/04 01:45:31;;;;;;;30.45;18.33;;;-0.10;13.60;;;;;;5073387;28;20198;-76
2023/12/04 01:47:57;;;;;;;24.20;16.27;;;-0.10;13.10;;;;;;5061132;28;20198;-77
2023/12/04 01:50:24;;;;;;;29.10;15.57;;;-0.10;9.10;;;;;;5052768;28;20179;-75
2023/12/04 01:52:52;;;;;;;27.58;16.25;;;-0.20;6.90;;;;;;5054263;28;20252;-76
2023/12/04 01:55:18;;;;;;;31.13;16.83;;;-0.20;1.00;;;;;;5071085;28;20182;-75
2023/12/04 01:57:44;;;;;;;27.55;18.42;;;-0.20;1.00;;;;;;5062991;28;20195;-76
2023/12/04 02:00:11;;;;;;;27.20;16.23;;;-0.20;1.00;;;;;;5054071;28;20191;-76
2023/12/04 02:02:38;;;;;;;29.00;16.75;;;-0.30;1.00;;;;;;5053959;28;20175;-76
2023/12/04 02:05:07;;;;;;;26.23;16.00;;;-0.40;1.00;;;;;;5053303;28;20194;-76
2023/12/04 02:07:33;;;;;;;22.23;15.60;;;-0.40;1.00;;;;;;5053259;28;20593;-76
2023/12/04 02:09:58;;;;;;;24.88;16.80;;;-0.40;1.00;;;;;;5052546;28;20532;-76
2023/12/04 02:12:24;;;;;;;26.13;16.67;;;-0.40;1.00;;;;;;5052847;28;20171;-76
2023/12/04 02:14:51;;;;;;;25.98;15.98;;;-0.50;1.00;;;;;;5052971;28;20174;-75
2023/12/04 02:17:17;;;;;;;29.17;17.08;;;-0.50;1.00;;;;;;5052089;28;20205;-76
2023/12/04 02:19:43;;;;;;;27.10;16.57;;;-0.50;1.00;;;;;;5052595;28;20258;-75
2023/12/04 02:22:08;;;;;;;30.87;19.07;;;-0.50;1.00;;;;;;5053277;28;20171;-75
2023/12/04 02:24:35;;;;;;;27.77;15.67;;;-0.50;1.00;;;;;;5048062;28;20465;-76
2023/12/04 02:27:20;;;;;;;26.15;17.65;;;-0.50;1.00;;;;;;5032984;28;20180;-76
2023/12/04 02:29:56;;;;;;;28.92;17.38;;;-0.50;1.00;;;;;;5032873;28;20187;-75
2023/12/04 02:32:23;;;;;;;30.52;15.05;;;-0.60;1.00;;;;;;5063908;28;20185;-75
2023/12/04 02:34:49;;;;;;;30.25;16.60;;;-0.60;1.00;;;;;;5052209;28;20255;-75
2023/12/04 02:37:16;;;;;;;26.00;15.63;;;-0.60;1.00;;;;;;5053470;28;20236;-76
2023/12/04 02:39:43;;;;;;;31.73;15.90;;;-0.60;1.00;;;;;;5056612;28;20169;-75
2023/12/04 02:42:08;;;;;;;25.65;16.50;;;-0.70;1.00;;;;;;5073379;28;20260;-75
2023/12/04 02:44:34;;;;;;;25.80;16.07;;;-0.70;1.00;;;;;;5072414;28;20190;-76
2023/12/04 02:47:00;;;;;;;26.77;17.13;;;-0.80;1.00;;;;;;5072432;28;20715;-77
2023/12/04 02:49:26;;;;;;;32.03;17.40;;;-0.80;1.00;;;;;;5071841;28;20185;-76
2023/12/04 02:51:52;;;;;;;26.50;17.13;;;-0.80;1.00;;;;;;5069848;28;20515;-77
2023/12/04 02:54:17;;;;;;;26.30;17.27;;;-0.80;1.00;;;;;;5052691;28;20181;-75
2023/12/04 02:56:43;;;;;;;30.90;17.37;;;-0.90;1.00;;;;;;5050990;28;20191;-76
2023/12/04 02:59:09;;;;;;;30.10;18.27;;;-0.90;1.00;;;;;;5052165;28;20170;-75
2023/12/04 03:01:35;;;;;;;27.27;17.53;;;-0.80;1.00;;;;;;5053657;28;20173;-77
2023/12/04 03:04:00;;;;;;;24.17;16.70;;;-0.90;1.00;;;;;;5072294;28;20256;-76
2023/12/04 03:06:26;;;;;;;25.70;14.73;;;-0.90;1.00;;;;;;5071671;28;20164;-76
2023/12/04 03:08:52;;;;;;;26.93;16.07;;;-0.90;1.00;;;;;;5063902;28;20213;-76
2023/12/04 03:11:18;;;;;;;44.93;18.37;;;-0.90;1.00;;;;;;5051899;28;20253;-76
2023/12/04 03:13:43;;;;;;;35.23;17.87;;;-1.00;1.00;;;;;;5052891;28;20813;-77
2023/12/04 03:16:18;;;;;;;29.13;17.70;;;-1.00;1.00;;;;;;5063430;28;20717;-76
2023/12/04 03:18:45;;;;;;;29.02;16.25;;;-1.00;1.00;;;;;;5072742;28;20440;-76
2023/12/04 03:21:11;;;;;;;32.85;16.90;;;-1.00;1.00;;;;;;5072675;28;20249;-77
2023/12/04 03:23:37;;;;;;;31.52;17.88;;;-1.00;1.00;;;;;;5071697;28;20170;-76
2023/12/04 03:26:03;;;;;;;25.73;18.47;;;-1.10;1.00;;;;;;5051053;28;20203;-76
2023/12/04 03:28:29;;;;;;;34.90;17.27;;;-1.10;1.00;;;;;;5051745;28;20428;-76
2023/12/04 03:30:54;;;;;;;24.70;14.60;;;-1.10;1.00;;;;;;5052569;28;20167;-76
2023/12/04 03:33:20;;;;;;;24.07;15.67;;;-1.10;1.00;;;;;;5053095;28;20194;-76
2023/12/04 03:35:46;;;;;;;29.30;17.10;;;-1.10;1.00;;;;;;5066789;28;20539;-76
2023/12/04 03:38:12;;;;;;;30.63;16.70;;;-1.20;1.00;;;;;;5070548;28;20196;-76
2023/12/04 03:40:37;;;;;;;28.03;14.90;;;-1.20;1.00;;;;;;5052205;28;20410;-76
2023/12/04 03:43:03;;;;;;;23.87;17.43;;;-1.20;1.00;;;;;;5052586;28;20167;-76
2023/12/04 03:45:29;;;;;;;26.23;15.27;;;-1.20;1.00;;;;;;5050887;28;20275;-75
2023/12/04 03:47:55;;;;;;;30.57;16.60;;;-1.30;1.00;;;;;;5064855;28;20255;-78
2023/12/04 03:50:20;;;;;;;30.60;16.33;;;-1.30;1.00;;;;;;5072659;28;20170;-76
2023/12/04 03:52:46;;;;;;;24.07;16.70;;;-1.20;1.00;;;;;;5072549;28;20409;-76
2023/12/04 03:55:12;;;;;;;36.73;17.40;;;-1.30;1.00;;;;;;5056928;28;20177;-77
2023/12/04 03:57:37;;;;;;;26.03;16.07;;;-1.30;1.00;;;;;;5052468;28;20269;-76
2023/12/04 04:00:04;;;;;;;29.97;15.27;;;-1.30;1.00;;;;;;5052342;28;20163;-76
2023/12/04 04:02:30;;;;;;;31.73;17.42;;;-1.30;1.00;;;;;;5052419;28;20171;-76
2023/12/04 04:04:56;;;;;;;40.20;18.57;;;-1.40;1.00;;;;;;5065791;28;20207;-76
2023/12/04 04:07:21;;;;;;;25.70;16.43;;;-1.40;1.00;;;;;;5051866;28;20284;-76
2023/12/04 04:09:47;;;;;;;26.73;16.10;;;-1.40;1.00;;;;;;5052214;28;20540;-76
2023/12/04 04:12:13;;;;;;;30.37;17.37;;;-1.40;1.00;;;;;;5052290;28;20169;-76
2023/12/04 04:14:39;;;;;;;29.57;17.07;;;-1.40;1.00;;;;;;5051324;28;20171;-76
2023/12/04 04:17:05;;;;;;;26.90;16.30;;;-1.50;1.00;;;;;;5052362;28;20187;-76
2023/12/04 04:19:30;;;;;;;29.27;14.77;;;-1.40;1.00;;;;;;5050836;28;20194;-77
2023/12/04 04:21:56;;;;;;;34.20;18.30;;;-1.40;1.00;;;;;;5051519;28;20171;-76
2023/12/04 04:24:22;;;;;;;31.60;16.70;;;-1.40;1.00;;;;;;5052904;28;20210;-76
2023/12/04 04:26:48;;;;;;;27.30;15.80;;;-1.40;1.00;;;;;;5050207;28;20243;-76
2023/12/04 04:29:13;;;;;;;29.90;17.13;;;-1.40;1.00;;;;;;5052058;28;20639;-78
2023/12/04 04:31:39;;;;;;;25.73;15.40;;;-1.40;1.00;;;;;;5052235;28;20195;-76
2023/12/04 04:34:05;;;;;;;26.03;15.70;;;-1.50;1.00;;;;;;5069255;28;20273;-76
2023/12/04 04:36:30;;;;;;;24.40;16.37;;;-1.50;1.00;;;;;;5074937;28;20167;-78
2023/12/04 04:38:56;;;;;;;22.30;15.13;;;-1.40;1.00;;;;;;5075288;28;20241;-76
2023/12/04 04:41:22;;;;;;;31.03;18.00;;;-1.50;1.00;;;;;;5056584;28;20505;-76
2023/12/04 04:43:48;;;;;;;25.75;17.17;;;-1.50;1.00;;;;;;5054305;28;20177;-77
2023/12/04 04:46:14;;;;;;;36.43;16.27;;;-1.40;1.00;;;;;;5054595;28;20925;-76
2023/12/04 04:48:40;;;;;;;27.77;15.97;;;-1.40;1.00;;;;;;5055415;28;20273;-76
2023/12/04 04:51:06;;;;;;;23.20;15.80;;;-1.40;1.00;;;;;;5055668;28;20240;-76
2023/12/04 04:53:32;;;;;;;27.40;15.47;;;-1.40;1.00;;;;;;5055214;28;20175;-77
2023/12/04 04:55:57;;;;;;;29.00;15.77;;;-1.40;1.00;;;;;;5054497;28;20535;-77
2023/12/04 04:58:23;;;;;;;25.03;16.23;;;-1.40;1.00;;;;;;5055337;28;20193;-76
2023/12/04 05:00:49;;;;;;;26.53;16.47;;;-1.40;1.00;;;;;;5055241;28;20178;-76
2023/12/04 05:03:15;;;;;;;26.40;16.00;;;-1.30;1.00;;;;;;5053895;28;20186;-78
2023/12/04 05:05:40;;;;;;;28.83;16.57;;;-1.30;1.00;;;;;;5054301;28;20202;-76
2023/12/04 05:08:06;;;;;;;26.33;15.67;;;-1.30;1.00;;;;;;5054082;28;20713;-76
2023/12/04 05:10:32;;;;;;;30.87;14.17;;;-1.30;1.00;;;;;;5055930;28;20178;-77
2023/12/04 05:12:57;;;;;;;24.27;16.43;;;-1.30;1.00;;;;;;5054871;28;20179;-76
2023/12/04 05:15:23;;;;;;;29.40;17.30;;;-1.30;1.00;;;;;;5053632;28;20167;-76
2023/12/04 05:17:49;;;;;;;24.67;15.20;;;-1.30;1.00;;;;;;5054901;28;20271;-76
2023/12/04 05:20:15;;;;;;;27.10;15.30;;;-1.30;1.00;;;;;;5054924;28;20206;-76
2023/12/04 05:22:40;;;;;;;27.17;15.07;;;-1.30;1.00;;;;;;5054955;28;20167;-76
2023/12/04 05:25:07;;;;;;;32.73;17.23;;;-1.30;1.00;;;;;;5054144;28;20195;-76
2023/12/04 05:27:32;;;;;;;21.77;14.35;;;-1.30;1.00;;;;;;5054052;28;20218;-76
2023/12/04 05:29:58;;;;;;;27.70;15.80;;;-1.30;1.00;;;;;;5054605;28;20195;-76
2023/12/04 05:32:24;;;;;;;24.53;14.67;;;-1.30;1.00;;;;;;5061097;28;20253;-78
2023/12/04 05:34:49;;;;;;;26.07;16.20;;;-1.40;1.00;;;;;;5069109;28;20926;-76
2023/12/04 05:37:15;;;;;;;28.10;15.33;;;-1.40;99.90;;;;;;5054562;28;20190;-76
2023/12/04 05:39:41;;;;;;;28.63;15.97;;;-1.40;99.90;;;;;;5055371;28;20187;-77
2023/12/04 05:42:08;;;;;;;27.35;15.35;;;-1.40;99.90;;;;;;5054317;28;20331;-76
2023/12/04 05:44:34;;;;;;;24.15;14.63;;;-1.50;99.90;;;;;;5053531;28;20203;-77
2023/12/04 05:47:00;;;;;;;20.73;14.23;;;-1.50;99.90;;;;;;5054219;28;20206;-76
2023/12/04 05:49:26;;;;;;;25.10;15.60;;;-1.50;99.90;;;;;;5054341;28;20175;-76
2023/12/04 05:51:51;;;;;;;22.80;13.83;;;-1.60;99.90;;;;;;5053645;28;20171;-78
2023/12/04 05:54:17;;;;;;;20.90;13.33;;;-1.70;99.90;;;;;;5054967;28;20219;-76
2023/12/04 05:56:43;;;;;;;25.03;14.27;;;-1.70;99.90;;;;;;5052953;28;20195;-76
2023/12/04 05:59:08;;;;;;;21.30;13.40;;;-1.70;99.90;;;;;;5053339;28;20195;-71
2023/12/04 06:01:34;;;;;;;26.50;14.03;;;-1.60;99.90;;;;;;5054051;28;20179;-71
2023/12/04 06:04:00;;;;;;;26.70;15.60;;;-1.60;99.90;;;;;;5068876;28;20499;-72
2023/12/04 06:06:27;;;;;;;25.23;14.87;;;-1.50;99.90;;;;;;5073008;28;20198;-71
2023/12/04 06:08:52;;;;;;;26.58;13.77;;;-1.50;99.90;;;;;;5067200;28;20238;-74
2023/12/04 06:11:18;;;;;;;27.50;14.00;;;-1.50;99.90;;;;;;5052253;28;20183;-74
2023/12/04 06:13:44;;;;;;;20.63;13.90;;;-1.40;99.90;;;;;;5054105;28;20183;-74
2023/12/04 06:16:10;;;;;;;21.93;12.77;;;-1.40;99.90;;;;;;5051732;28;20512;-74
2023/12/04 06:18:35;;;;;;;23.20;14.43;;;-1.30;99.90;;;;;;5053293;28;20606;-75
2023/12/04 06:21:01;;;;;;;30.07;14.03;;;-1.30;99.90;;;;;;5052168;28;20867;-73
2023/12/04 06:23:27;;;;;;;24.73;13.37;;;-1.30;99.90;;;;;;5054255;28;20253;-73
2023/12/04 06:25:53;;;;;;;26.10;15.13;;;-1.30;99.90;;;;;;5071200;28;20206;-74
2023/12/04 06:28:19;;;;;;;21.33;14.35;;;-1.20;99.90;;;;;;5073453;28;20428;-73
2023/12/04 06:30:45;;;;;;;20.10;13.37;;;-1.20;99.90;;;;;;5054590;28;20186;-73
2023/12/04 06:33:12;;;;;;;27.07;14.90;;;-1.20;99.90;;;;;;5051961;28;20577;-74
2023/12/04 06:35:38;;;;;;;26.60;15.02;;;-1.20;99.90;;;;;;5061752;28;20412;-73
2023/12/04 06:38:08;;;;;;;19.75;12.90;;;-1.20;99.90;;;;;;5072317;28;20198;-73
2023/12/04 06:40:34;;;;;;;24.02;15.88;;;-1.20;99.90;;;;;;5056297;28;20183;-75
2023/12/04 06:43:01;;;;;;;29.77;16.17;;;-1.20;99.90;;;;;;5053185;28;20308;-73
2023/12/04 06:45:27;;;;;;;26.13;14.55;;;-1.20;99.90;;;;;;5052391;28;20596;-73
2023/12/04 06:47:54;;;;;;;23.10;15.77;;;-1.20;99.90;;;;;;5052891;28;20191;-74
2023/12/04 06:50:19;;;;;;;22.63;13.98;;;-1.20;99.90;;;;;;5053004;28;20530;-73
2023/12/04 06:52:45;;;;;;;28.80;15.63;;;-1.20;99.90;;;;;;5056365;28;20175;-73
2023/12/04 06:55:12;;;;;;;24.90;14.53;;;-1.20;99.90;;;;;;5051675;28;20622;-73
2023/12/04 06:57:38;;;;;;;27.75;15.25;;;-1.20;99.90;;;;;;5053117;28;20218;-73
2023/12/04 07:00:06;;;;;;;25.97;14.90;;;-1.20;99.90;;;;;;5053054;28;20612;-73
2023/12/04 07:02:32;;;;;;;22.73;15.00;;;-1.20;99.90;;;;;;5053103;28;20167;-74
2023/12/04 07:04:57;;;;;;;20.43;11.90;;;-1.20;99.90;;;;;;5051407;28;20743;-73
2023/12/04 07:07:23;;;;;;;19.20;12.63;;;-1.20;99.90;;;;;;5061769;28;20189;-73
2023/12/04 07:09:49;;;;;;;22.73;14.20;;;-1.20;99.90;;;;;;5065650;28;20171;-73
2023/12/04 07:12:14;;;;;;;25.93;14.83;;;-1.30;99.90;;;;;;5051726;28;20650;-72
2023/12/04 07:14:40;;;;;;;23.20;14.20;;;-1.20;99.90;;;;;;5051924;28;20228;-73
2023/12/04 07:17:06;;;;;;;22.43;14.33;;;-1.20;99.90;;;;;;5051856;28;20217;-73
2023/12/04 07:19:32;;;;;;;24.80;13.87;;;-1.20;99.90;;;;;;5052881;28;20628;-73
2023/12/04 07:21:57;;;;;;;23.93;14.27;;;-1.20;99.90;;;;;;5061644;28;20170;-74
2023/12/04 07:24:23;;;;;;;26.83;16.20;;;-1.20;99.90;;;;;;5069086;28;20703;-76
2023/12/04 07:26:49;;;;;;;29.30;16.53;;;-1.20;99.90;;;;;;5030648;28;20245;-73
2023/12/04 07:29:14;;;;;;;26.00;15.80;;;-1.20;99.90;;;;;;5040452;28;20628;-74
2023/12/04 07:31:41;;;;;;;28.90;16.50;;;-1.20;99.90;;;;;;5052596;28;20228;-73
2023/12/04 07:34:07;;;;;;;29.50;16.55;;;-1.20;99.90;;;;;;5051391;28;20725;-73
2023/12/04 07:36:33;;;;;;;24.30;14.13;;;-1.10;99.90;;;;;;5051494;28;20214;-74
2023/12/04 07:38:58;;;;;;;26.90;15.93;;;-1.10;99.90;;;;;;5063946;28;20439;-73
2023/12/04 07:41:24;;;;;;;28.90;16.20;;;-1.10;99.90;;;;;;5055730;28;20183;-73
2023/12/04 07:43:51;;;;;;;23.70;16.60;;;-1.10;99.90;;;;;;5051948;28;20182;-73
2023/12/04 07:46:16;;;;;;;24.13;14.50;;;-1.10;99.90;;;;;;5051650;28;20194;-73
2023/12/04 07:48:43;;;;;;;25.93;15.60;;;-1.00;99.90;;;;;;5052504;28;20256;-73
2023/12/04 07:51:09;;;;;;;28.65;15.13;;;-1.00;99.90;;;;;;5052508;28;20170;-73
2023/12/04 07:53:35;;;;;;;33.00;17.85;;;-1.00;99.90;;;;;;5052063;28;20175;-73
2023/12/04 07:56:04;;;;;;;29.43;17.27;;;-0.90;99.90;;;;;;5052224;28;20285;-73
2023/12/04 07:58:34;;;;;;;27.35;15.68;;;-0.90;99.90;;;;;;5052472;28;20222;-73
2023/12/04 08:00:59;;;;;;;29.65;15.52;;;-0.90;99.90;;;;;;5050709;28;20262;-74
2023/12/04 08:03:25;;;;;;;29.57;16.30;;;-0.80;99.90;;;;;;5052332;28;20258;-73
2023/12/04 08:05:51;;;;;;;30.67;17.97;;;-0.80;99.90;;;;;;5052146;28;20190;-74
2023/12/04 08:08:17;;;;;;;31.30;17.45;;;-0.80;99.90;;;;;;5064094;28;20186;-72
2023/12/04 08:10:43;;;;;;;30.43;17.97;;;-0.90;99.90;;;;;;5055978;28;20283;-73
2023/12/04 08:13:08;;;;;;;26.97;16.10;;;-0.80;99.90;;;;;;5056272;28;20175;-73
2023/12/04 08:15:34;;;;;;;30.73;18.40;;;-0.90;99.90;;;;;;5053735;28;20390;-73
2023/12/04 08:18:00;;;;;;;30.27;16.73;;;-0.90;99.90;;;;;;5054782;28;20199;-73
2023/12/04 08:20:26;;;;;;;34.08;17.85;;;-0.90;99.90;;;;;;5055853;28;20163;-73
2023/12/04 08:22:52;;;;;;;32.33;19.67;;;-0.80;99.90;;;;;;5055562;28;20672;-73
2023/12/04 08:25:18;;;;;;;34.27;18.33;;;-0.80;99.90;;;;;;5054156;28;20235;-73
2023/12/04 08:27:44;;;;;;;27.13;16.33;;;-0.80;99.90;;;;;;5054584;28;20242;-73
2023/12/04 08:30:10;;;;;;;29.20;17.60;;;-0.80;99.90;;;;;;5055717;28;20412;-73
2023/12/04 08:32:35;;;;;;;27.37;16.17;;;-0.80;99.90;;;;;;5055101;28;20178;-73
2023/12/04 08:35:01;;;;;;;24.43;16.40;;;-0.70;99.90;;;;;;5054714;28;20416;-72
2023/12/04 08:37:27;;;;;;;29.70;17.63;;;-0.70;99.90;;;;;;5054412;28;20203;-73
2023/12/04 08:39:53;;;;;;;28.50;16.33;;;-0.70;99.90;;;;;;5067995;28;20182;-72
2023/12/04 08:42:19;;;;;;;26.88;16.40;;;-0.60;99.90;;;;;;5059962;28;20170;-72
2023/12/04 08:44:47;;;;;;;33.50;17.13;;;-0.60;99.90;;;;;;5055563;28;20213;-73
2023/12/04 08:47:13;;;;;;;29.77;17.52;;;-0.50;99.90;;;;;;5061163;28;20290;-73
2023/12/04 08:49:40;;;;;;;29.10;16.27;;;-0.50;99.90;;;;;;5063816;28;20265;-72
2023/12/04 08:52:07;;;;;;;27.60;16.23;;;-0.50;99.90;;;;;;5055334;28;20417;-74
2023/12/04 08:54:34;;;;;;;29.15;16.30;;;-0.50;99.90;;;;;;5054615;28;20178;-75
2023/12/04 08:56:59;;;;;;;36.35;17.60;;;-0.50;99.90;;;;;;5051432;28;20253;-73
2023/12/04 08:59:25;;;;;;;26.50;15.40;;;-0.50;99.90;;;;;;5044733;28;20187;-74
2023/12/04 09:01:51;;;;;;;30.40;16.90;;;-0.50;99.90;;;;;;5054197;28;20179;-74
2023/12/04 09:04:17;;;;;;;29.90;17.23;;;-0.40;99.90;;;;;;5051761;28;20174;-74
2023/12/04 09:06:42;;;;;;;29.90;17.20;;;-0.40;99.90;;;;;;5074619;28;20192;-74
2023/12/04 09:09:08;;;;;;;25.23;16.33;;;-0.40;99.90;;;;;;5067907;28;20689;-73
2023/12/04 09:11:34;;;;;;;24.50;15.83;;;-0.40;99.90;;;;;;5066083;28;20231;-74
2023/12/04 09:13:59;;;;;;;26.10;16.00;;;-0.40;99.90;;;;;;5067414;28;20598;-74
2023/12/04 09:16:25;;;;;;;26.37;15.87;;;-0.40;99.90;;;;;;5054547;28;20167;-74
2023/12/04 09:18:53;;;;;;;28.30;16.90;;;-0.50;99.90;;;;;;5040613;28;20246;-74
2023/12/04 09:21:19;;;;;;;27.02;16.25;;;-0.50;99.90;;;;;;5035405;28;20167;-74
2023/12/04 09:23:49;;;;;;;27.97;17.80;;;-0.40;99.90;;;;;;5050971;28;20186;-74
2023/12/04 09:26:16;;;;;;;36.75;17.42;;;-0.40;99.90;;;;;;5059075;28;20536;-74
2023/12/04 09:28:42;;;;;;;32.20;17.65;;;-0.40;99.90;;;;;;5054662;28;20735;-74
2023/12/04 09:31:08;;;;;;;25.47;16.30;;;-0.50;99.90;;;;;;5052005;28;20284;-74
2023/12/04 09:33:35;;;;;;;23.35;16.02;;;-0.40;99.90;;;;;;5056615;28;20257;-75
2023/12/04 09:36:02;;;;;;;30.35;17.20;;;-0.40;99.90;;;;;;5042152;28;20187;-74
2023/12/04 09:38:29;;;;;;;33.70;16.75;;;-0.40;99.90;;;;;;5045663;28;20231;-74
2023/12/04 09:40:59;;;;;;;23.80;14.75;;;-0.40;99.90;;;;;;5067050;28;20189;-74
2023/12/04 09:43:34;;;;;;;29.83;16.70;;;-0.40;99.90;;;;;;5074363;28;20170;-74
2023/12/04 09:46:01;;;;;;;27.20;16.50;;;-0.30;99.90;;;;;;5073526;28;20226;-75
2023/12/04 09:48:27;;;;;;;24.48;16.52;;;-0.30;99.90;;;;;;5054016;28;20188;-76
2023/12/04 09:50:53;;;;;;;24.50;15.88;;;-0.20;99.90;;;;;;5035027;28;20660;-76
2023/12/04 09:53:20;;;;;;;26.85;16.48;;;-0.20;99.90;;;;;;5051591;28;20228;-74
2023/12/04 09:55:49;;;;;;;21.65;15.60;;;-0.30;99.90;;;;;;5053532;28;20189;-74
2023/12/04 09:58:17;;;;;;;17.17;12.90;;;-0.20;99.90;;;;;;5050418;28;20199;-73
2023/12/04 10:00:43;;;;;;;26.42;15.55;;;-0.20;99.90;;;;;;5051159;28;20186;-74
2023/12/04 10:03:09;;;;;;;22.47;14.33;;;-0.20;99.90;;;;;;5046541;28;20277;-76
2023/12/04 10:05:34;;;;;;;29.30;15.33;;;-0.20;99.90;;;;;;5062429;28;20216;-77
2023/12/04 10:08:00;;;;;;;26.33;15.50;;;-0.10;99.90;;;;;;5053769;28;20426;-76
2023/12/04 10:10:26;;;;;;;21.10;13.17;;;0.00;99.90;;;;;;5039935;28;20183;-76
2023/12/04 10:12:52;;;;;;;27.27;15.30;;;0.00;99.90;;;;;;5037942;28;20175;-76
2023/12/04 10:15:17;;;;;;;18.23;13.23;;;0.00;99.90;;;;;;5040713;28;20235;-76
2023/12/04 10:17:43;;;;;;;23.33;14.10;;;0.10;99.90;;;;;;5052442;28;20597;-76
2023/12/04 10:20:19;;;;;;;22.07;15.40;;;0.10;99.90;;;;;;5053002;28;20264;-76
2023/12/04 10:22:53;;;;;;;28.23;15.40;;;0.10;99.90;;;;;;5053995;28;20249;-76
2023/12/04 10:25:19;;;;;;;23.67;14.70;;;0.10;99.90;;;;;;5061680;28;20202;-76
2023/12/04 10:27:45;;;;;;;28.08;15.23;;;0.10;99.90;;;;;;5053545;28;20664;-76
2023/12/04 10:30:23;;;;;;;22.13;15.25;;;0.10;99.90;;;;;;5053164;28;20191;-77
2023/12/04 10:32:49;;;;;;;28.75;15.38;;;0.20;99.90;;;;;;5042555;28;20172;-76
2023/12/04 10:35:14;;;;;;;20.00;13.33;;;0.20;99.90;;;;;;5033222;28;20198;-76
2023/12/04 10:37:40;;;;;;;22.10;13.73;;;0.20;99.90;;;;;;5033506;28;20731;-76
2023/12/04 10:40:10;;;;;;;21.02;14.48;;;0.20;99.90;;;;;;5033879;28;20170;-76
2023/12/04 10:42:35;;;;;;;26.67;14.82;;;0.20;99.90;;;;;;5047217;28;20182;-76
2023/12/04 10:45:01;;;;;;;19.23;12.43;;;0.20;99.90;;;;;;5052564;28;20560;-76
2023/12/04 10:47:30;;;;;;;22.53;14.60;;;0.30;99.90;;;;;;5052234;28;20539;-76
2023/12/04 10:49:56;;;;;;;26.33;15.27;;;0.30;99.90;;;;;;5053651;28;20397;-76
2023/12/04 10:52:22;;;;;;;23.52;13.65;;;0.30;99.90;;;;;;5053484;28;20191;-77
2023/12/04 10:54:49;;;;;;;22.17;13.20;;;0.40;99.90;;;;;;5032375;28;20171;-76
2023/12/04 10:57:39;;;;;;;25.40;15.73;;;0.40;99.90;;;;;;5048981;28;20433;-76
2023/12/04 11:00:08;;;;;;;24.85;13.85;;;0.30;99.90;;;;;;5051959;28;20730;-76
2023/12/04 11:02:35;;;;;;;23.38;13.35;;;0.30;99.90;;;;;;5039608;28;20249;-74
2023/12/04 11:05:13;;;;;;;24.00;14.60;;;0.30;99.90;;;;;;5032511;28;20253;-74
2023/12/04 11:07:44;;;;;;;27.17;13.85;;;0.20;99.90;;;;;;5048829;28;20294;-73
2023/12/04 11:10:11;;;;;;;26.55;14.75;;;0.30;99.90;;;;;;5038941;28;20188;-73
2023/12/04 11:12:42;;;;;;;26.33;14.27;;;0.30;99.90;;;;;;5050732;28;20175;-75
2023/12/04 11:15:10;;;;;;;26.65;16.52;;;0.30;99.90;;;;;;5052378;28;20187;-75
2023/12/04 11:17:38;;;;;;;26.48;14.63;;;0.30;99.90;;;;;;5053096;28;20210;-77
2023/12/04 11:20:18;;;;;;;25.02;15.52;;;0.40;99.90;;;;;;5053018;28;20277;-76
2023/12/04 11:22:45;;;;;;;25.65;16.05;;;0.50;99.90;;;;;;5052601;28;20170;-76
2023/12/04 11:25:13;;;;;;;23.40;14.77;;;0.50;99.90;;;;;;5067714;28;20263;-76
2023/12/04 11:27:40;;;;;;;22.85;14.88;;;0.50;99.90;;;;;;5054048;28;20231;-76
2023/12/04 11:30:07;;;;;;;22.90;14.45;;;0.40;99.90;;;;;;5032708;28;20182;-76
2023/12/04 11:32:44;;;;;;;26.55;14.90;;;0.40;99.90;;;;;;5032928;28;20157;-76
2023/12/04 11:35:14;;;;;;;19.35;13.50;;;0.50;99.90;;;;;;5049317;28;20586;-75
2023/12/04 11:37:40;;;;;;;29.27;16.25;;;0.50;99.90;;;;;;5052465;28;20186;-76
2023/12/04 11:40:07;;;;;;;27.65;14.52;;;0.40;99.90;;;;;;5033288;28;20177;-75
2023/12/04 11:42:33;;;;;;;27.60;16.45;;;0.50;99.90;;;;;;5049798;28;20220;-76
2023/12/04 11:44:59;;;;;;;24.30;15.07;;;0.50;99.90;;;;;;5050421;28;20700;-78
2023/12/04 11:47:24;;;;;;;27.10;14.63;;;0.40;99.90;;;;;;5048162;28;20194;-75
2023/12/04 11:49:50;;;;;;;28.60;15.13;;;0.50;99.90;;;;;;5043069;28;20198;-75
2023/12/04 11:52:16;;;;;;;23.13;14.50;;;0.50;99.90;;;;;;5067127;28;20179;-76
2023/12/04 11:54:59;;;;;;;30.00;16.30;;;0.60;99.90;;;;;;5055626;28;20221;-77
2023/12/04 11:57:29;;;;;;;27.17;16.40;;;0.60;99.90;;;;;;5057687;28;20619;-76
2023/12/04 12:00:20;;;;;;;26.50;17.17;;;0.60;99.90;;;;;;5056785;28;20178;-76
2023/12/04 12:02:54;;;;;;;27.50;15.23;;;0.50;99.90;;;;;;5056434;28;20185;-75
2023/12/04 12:05:21;;;;;;;28.42;15.75;;;0.50;99.90;;;;;;5060369;28;20681;-76
2023/12/04 12:07:47;;;;;;;23.48;14.68;;;0.50;99.90;;;;;;5072883;28;20203;-75
2023/12/04 12:10:13;;;;;;;24.20;14.27;;;0.50;99.90;;;;;;5056573;28;20174;-75
2023/12/04 12:12:43;;;;;;;26.83;17.83;;;0.40;99.90;;;;;;5056900;28;20363;-76
2023/12/04 12:15:12;;;;;;;25.90;15.32;;;0.40;99.90;;;;;;5055773;28;20178;-75
2023/12/04 12:17:38;;;;;;;26.17;17.10;;;0.40;99.90;;;;;;5056475;28;20194;-75
2023/12/04 12:20:09;;;;;;;27.50;16.52;;;0.40;99.90;;;;;;5066707;28;20182;-76
2023/12/04 12:22:36;;;;;;;30.92;15.93;;;0.40;99.90;;;;;;5042260;28;20655;-76
2023/12/04 12:25:04;;;;;;;23.63;15.60;;;0.50;99.90;;;;;;5048510;28;20203;-76
2023/12/04 12:27:30;;;;;;;23.90;16.63;;;0.60;99.90;;;;;;5056700;28;20261;-76
2023/12/04 12:29:56;;;;;;;26.58;15.68;;;0.60;99.90;;;;;;5055370;28;20273;-75